Cloud Lake, Florida
Current Conditions -  °F | °C
As of 3:53 AM on Wednesday 22 Oct 2014 (Local Time) from KPBI Reporting Station
Broken Clouds Broken Clouds  
Wind Chill: 70°   Ceiling: 16000
Heat Index: 70°   Visibility: 10mi
Dew Point: 70°   Wind: 0mph
Humidity: 100%   Direction: NA
Pressure: 29.9"   Gusts: NA
Location:  26.6662°N, 80.0908°W
Report Text: KPBI 220753Z 00000KT 10SM BKN160 BKN230 21/21 A2990 RMK AO2 SLP123 T02110211
Loading
Personal Weather Stations






























Interactive Weather Map
Tropical Storm Tracking
New forecast layout! Learn more

10-Day Weather Forecast

Advertisements
Track Severe Weather on mobile